sensor_id;sensor_type;location;lat;lon;timestamp;temperature;humidity
37972;DHT22;23794;48.234;8.344;2022-10-18T00:00:06;13.30;99.90
37972;DHT22;23794;48.234;8.344;2022-10-18T00:02:36;13.40;99.90
37972;DHT22;23794;48.234;8.344;2022-10-18T00:05:04;13.50;99.90
37972;DHT22;23794;48.234;8.344;2022-10-18T00:07:31;13.50;99.90
37972;DHT22;23794;48.234;8.344;2022-10-18T00:09:58;13.60;99.90
37972;DHT22;23794;48.234;8.344;2022-10-18T00:12:25;13.60;99.90
37972;DHT22;23794;48.234;8.344;2022-10-18T00:14:52;13.60;99.90
37972;DHT22;23794;48.234;8.344;2022-10-18T00:17:19;13.60;99.90
37972;DHT22;23794;48.234;8.344;2022-10-18T00:19:45;13.60;99.90
37972;DHT22;23794;48.234;8.344;2022-10-18T00:22:13;13.60;99.90
37972;DHT22;23794;48.234;8.344;2022-10-18T00:24:40;13.60;99.90
37972;DHT22;23794;48.234;8.344;2022-10-18T00:27:07;13.60;99.90
37972;DHT22;23794;48.234;8.344;2022-10-18T00:29:33;13.70;99.90
37972;DHT22;23794;48.234;8.344;2022-10-18T00:32:00;13.70;99.90
37972;DHT22;23794;48.234;8.344;2022-10-18T00:34:27;13.80;99.90
37972;DHT22;23794;48.234;8.344;2022-10-18T00:36:54;13.70;99.90
37972;DHT22;23794;48.234;8.344;2022-10-18T00:39:21;13.80;99.90
37972;DHT22;23794;48.234;8.344;2022-10-18T00:41:49;13.90;99.90
37972;DHT22;23794;48.234;8.344;2022-10-18T00:46:46;13.90;99.90
37972;DHT22;23794;48.234;8.344;2022-10-18T00:49:18;14.00;99.90
37972;DHT22;23794;48.234;8.344;2022-10-18T00:54:33;14.00;99.90
37972;DHT22;23794;48.234;8.344;2022-10-18T00:57:01;14.00;99.90
37972;DHT22;23794;48.234;8.344;2022-10-18T00:59:28;14.00;99.90
37972;DHT22;23794;48.234;8.344;2022-10-18T01:01:55;14.10;99.90
37972;DHT22;23794;48.234;8.344;2022-10-18T01:04:22;14.20;99.90
37972;DHT22;23794;48.234;8.344;2022-10-18T01:07:00;14.10;99.90
37972;DHT22;23794;48.234;8.344;2022-10-18T01:10:08;14.10;99.90
37972;DHT22;23794;48.234;8.344;2022-10-18T01:12:50;14.20;99.90
37972;DHT22;23794;48.234;8.344;2022-10-18T01:15:24;14.20;99.90
37972;DHT22;23794;48.234;8.344;2022-10-18T01:23:37;14.30;99.90
37972;DHT22;23794;48.234;8.344;2022-10-18T01:26:29;14.40;99.90
37972;DHT22;23794;48.234;8.344;2022-10-18T01:29:06;14.40;99.90
37972;DHT22;23794;48.234;8.344;2022-10-18T01:31:46;14.50;99.90
37972;DHT22;23794;48.234;8.344;2022-10-18T01:34:16;14.60;99.90
37972;DHT22;23794;48.234;8.344;2022-10-18T01:36:47;14.70;99.90
37972;DHT22;23794;48.234;8.344;2022-10-18T01:39:28;14.60;99.90
37972;DHT22;23794;48.234;8.344;2022-10-18T01:41:58;14.50;99.90
37972;DHT22;23794;48.234;8.344;2022-10-18T01:44:28;14.50;99.90
37972;DHT22;23794;48.234;8.344;2022-10-18T01:46:57;14.60;99.90
37972;DHT22;23794;48.234;8.344;2022-10-18T01:49:25;14.60;99.90
37972;DHT22;23794;48.234;8.344;2022-10-18T01:51:52;14.50;99.90
37972;DHT22;23794;48.234;8.344;2022-10-18T01:54:28;14.50;99.90
37972;DHT22;23794;48.234;8.344;2022-10-18T01:59:49;14.50;99.90
37972;DHT22;23794;48.234;8.344;2022-10-18T02:05:21;14.60;99.90
37972;DHT22;23794;48.234;8.344;2022-10-18T02:07:58;14.50;99.90
37972;DHT22;23794;48.234;8.344;2022-10-18T02:10:49;14.60;99.90
37972;DHT22;23794;48.234;8.344;2022-10-18T02:13:18;14.60;99.90
37972;DHT22;23794;48.234;8.344;2022-10-18T02:15:48;14.50;99.90
37972;DHT22;23794;48.234;8.344;2022-10-18T02:18:22;14.50;99.90
37972;DHT22;23794;48.234;8.344;2022-10-18T02:20:51;14.40;99.90
37972;DHT22;23794;48.234;8.344;2022-10-18T02:23:21;14.50;99.90
37972;DHT22;23794;48.234;8.344;2022-10-18T02:25:49;14.50;99.90
37972;DHT22;23794;48.234;8.344;2022-10-18T02:28:16;14.50;99.90
37972;DHT22;23794;48.234;8.344;2022-10-18T02:31:02;14.40;99.90
37972;DHT22;23794;48.234;8.344;2022-10-18T02:33:36;14.40;99.90
37972;DHT22;23794;48.234;8.344;2022-10-18T02:36:35;14.40;99.90
37972;DHT22;23794;48.234;8.344;2022-10-18T02:39:11;14.30;99.90
37972;DHT22;23794;48.234;8.344;2022-10-18T02:41:42;14.10;99.90
37972;DHT22;23794;48.234;8.344;2022-10-18T02:44:09;14.10;99.90
37972;DHT22;23794;48.234;8.344;2022-10-18T02:46:36;14.00;99.90
37972;DHT22;23794;48.234;8.344;2022-10-18T02:49:04;13.90;99.90
37972;DHT22;23794;48.234;8.344;2022-10-18T02:51:30;13.90;99.90
37972;DHT22;23794;48.234;8.344;2022-10-18T02:53:57;13.90;99.90
37972;DHT22;23794;48.234;8.344;2022-10-18T02:56:24;13.70;99.90
37972;DHT22;23794;48.234;8.344;2022-10-18T02:58:51;13.70;99.90
37972;DHT22;23794;48.234;8.344;2022-10-18T03:01:18;13.70;99.90
37972;DHT22;23794;48.234;8.344;2022-10-18T03:03:44;13.50;99.90
37972;DHT22;23794;48.234;8.344;2022-10-18T03:06:11;13.50;99.90
37972;DHT22;23794;48.234;8.344;2022-10-18T03:08:38;13.60;99.90
37972;DHT22;23794;48.234;8.344;2022-10-18T03:11:05;13.50;99.90
37972;DHT22;23794;48.234;8.344;2022-10-18T03:13:32;13.50;99.90
37972;DHT22;23794;48.234;8.344;2022-10-18T03:16:00;13.40;99.90
37972;DHT22;23794;48.234;8.344;2022-10-18T03:18:27;13.30;99.90
37972;DHT22;23794;48.234;8.344;2022-10-18T03:20:54;13.40;99.90
37972;DHT22;23794;48.234;8.344;2022-10-18T03:23:20;13.40;99.90
37972;DHT22;23794;48.234;8.344;2022-10-18T03:25:47;13.40;99.90
37972;DHT22;23794;48.234;8.344;2022-10-18T03:28:14;13.50;99.90
37972;DHT22;23794;48.234;8.344;2022-10-18T03:30:41;13.50;99.90
37972;DHT22;23794;48.234;8.344;2022-10-18T03:33:07;13.50;99.90
37972;DHT22;23794;48.234;8.344;2022-10-18T03:35:34;13.50;99.90
37972;DHT22;23794;48.234;8.344;2022-10-18T03:38:01;13.50;99.90
37972;DHT22;23794;48.234;8.344;2022-10-18T03:40:27;13.50;99.90
37972;DHT22;23794;48.234;8.344;2022-10-18T03:42:54;13.40;99.90
37972;DHT22;23794;48.234;8.344;2022-10-18T03:45:21;13.50;99.90
37972;DHT22;23794;48.234;8.344;2022-10-18T03:47:51;13.40;99.90
37972;DHT22;23794;48.234;8.344;2022-10-18T03:50:18;13.30;99.90
37972;DHT22;23794;48.234;8.344;2022-10-18T03:52:45;13.30;99.90
37972;DHT22;23794;48.234;8.344;2022-10-18T03:55:12;13.40;99.90
37972;DHT22;23794;48.234;8.344;2022-10-18T03:57:38;13.20;99.90
37972;DHT22;23794;48.234;8.344;2022-10-18T04:00:06;13.30;99.90
37972;DHT22;23794;48.234;8.344;2022-10-18T04:02:37;13.30;99.90
37972;DHT22;23794;48.234;8.344;2022-10-18T04:05:04;13.30;99.90
37972;DHT22;23794;48.234;8.344;2022-10-18T04:07:31;13.20;99.90
37972;DHT22;23794;48.234;8.344;2022-10-18T04:09:58;13.20;99.90
37972;DHT22;23794;48.234;8.344;2022-10-18T04:12:24;13.20;99.90
37972;DHT22;23794;48.234;8.344;2022-10-18T04:14:51;13.30;99.90
37972;DHT22;23794;48.234;8.344;2022-10-18T04:17:21;13.30;99.90
37972;DHT22;23794;48.234;8.344;2022-10-18T04:19:47;13.20;99.90
37972;DHT22;23794;48.234;8.344;2022-10-18T04:22:15;13.20;99.90
37972;DHT22;23794;48.234;8.344;2022-10-18T04:24:43;13.20;99.90
37972;DHT22;23794;48.234;8.344;2022-10-18T04:27:10;13.20;99.90
37972;DHT22;23794;48.234;8.344;2022-10-18T04:29:36;13.10;99.90
37972;DHT22;23794;48.234;8.344;2022-10-18T04:32:03;13.00;99.90
37972;DHT22;23794;48.234;8.344;2022-10-18T04:34:30;13.00;99.90
37972;DHT22;23794;48.234;8.344;2022-10-18T04:36:57;13.00;99.90
37972;DHT22;23794;48.234;8.344;2022-10-18T04:39:24;12.80;99.90
37972;DHT22;23794;48.234;8.344;2022-10-18T04:41:50;12.70;99.90
37972;DHT22;23794;48.234;8.344;2022-10-18T04:44:17;12.80;99.90
37972;DHT22;23794;48.234;8.344;2022-10-18T04:46:44;12.70;99.90
37972;DHT22;23794;48.234;8.344;2022-10-18T04:49:11;12.70;99.90
37972;DHT22;23794;48.234;8.344;2022-10-18T04:51:37;12.80;99.90
37972;DHT22;23794;48.234;8.344;2022-10-18T04:54:04;12.80;99.90
37972;DHT22;23794;48.234;8.344;2022-10-18T04:56:31;13.00;99.90
37972;DHT22;23794;48.234;8.344;2022-10-18T04:58:58;12.80;99.90
37972;DHT22;23794;48.234;8.344;2022-10-18T05:01:25;12.80;99.90
37972;DHT22;23794;48.234;8.344;2022-10-18T05:03:53;12.80;99.90
37972;DHT22;23794;48.234;8.344;2022-10-18T05:06:21;12.70;99.90
37972;DHT22;23794;48.234;8.344;2022-10-18T05:08:48;12.70;99.90
37972;DHT22;23794;48.234;8.344;2022-10-18T05:11:15;12.60;99.90
37972;DHT22;23794;48.234;8.344;2022-10-18T05:13:41;12.70;99.90
37972;DHT22;23794;48.234;8.344;2022-10-18T05:16:12;12.70;99.90
37972;DHT22;23794;48.234;8.344;2022-10-18T05:18:39;12.80;99.90
37972;DHT22;23794;48.234;8.344;2022-10-18T05:21:06;12.90;99.90
37972;DHT22;23794;48.234;8.344;2022-10-18T05:23:33;12.90;99.90
37972;DHT22;23794;48.234;8.344;2022-10-18T05:26:01;13.00;99.90
37972;DHT22;23794;48.234;8.344;2022-10-18T05:28:28;13.10;99.90
37972;DHT22;23794;48.234;8.344;2022-10-18T05:31:10;13.10;99.90
37972;DHT22;23794;48.234;8.344;2022-10-18T05:33:38;13.10;99.90
37972;DHT22;23794;48.234;8.344;2022-10-18T05:36:04;13.10;99.90
37972;DHT22;23794;48.234;8.344;2022-10-18T05:38:31;13.10;99.90
37972;DHT22;23794;48.234;8.344;2022-10-18T05:41:02;13.00;99.90
37972;DHT22;23794;48.234;8.344;2022-10-18T05:43:29;13.10;99.90
37972;DHT22;23794;48.234;8.344;2022-10-18T05:45:56;13.10;99.90
37972;DHT22;23794;48.234;8.344;2022-10-18T05:48:23;13.20;99.90
37972;DHT22;23794;48.234;8.344;2022-10-18T05:50:50;13.20;99.90
37972;DHT22;23794;48.234;8.344;2022-10-18T05:53:16;13.40;99.90
37972;DHT22;23794;48.234;8.344;2022-10-18T05:56:03;13.60;99.90
37972;DHT22;23794;48.234;8.344;2022-10-18T05:58:29;13.50;99.90
37972;DHT22;23794;48.234;8.344;2022-10-18T06:01:00;13.60;99.90
37972;DHT22;23794;48.234;8.344;2022-10-18T06:03:27;13.70;99.90
37972;DHT22;23794;48.234;8.344;2022-10-18T06:06:01;13.70;99.90
37972;DHT22;23794;48.234;8.344;2022-10-18T06:08:28;13.70;99.90
37972;DHT22;23794;48.234;8.344;2022-10-18T06:10:54;13.70;99.90
37972;DHT22;23794;48.234;8.344;2022-10-18T06:13:21;13.80;99.90
37972;DHT22;23794;48.234;8.344;2022-10-18T06:15:48;13.90;99.90
37972;DHT22;23794;48.234;8.344;2022-10-18T06:18:15;14.00;99.90
37972;DHT22;23794;48.234;8.344;2022-10-18T06:20:42;13.90;99.90
37972;DHT22;23794;48.234;8.344;2022-10-18T06:23:09;13.90;99.90
37972;DHT22;23794;48.234;8.344;2022-10-18T06:25:36;13.90;99.90
37972;DHT22;23794;48.234;8.344;2022-10-18T06:28:04;14.00;99.90
37972;DHT22;23794;48.234;8.344;2022-10-18T06:30:35;14.00;99.90
37972;DHT22;23794;48.234;8.344;2022-10-18T06:33:02;14.20;99.90
37972;DHT22;23794;48.234;8.344;2022-10-18T06:35:29;14.20;99.90
37972;DHT22;23794;48.234;8.344;2022-10-18T06:37:56;14.20;99.90
37972;DHT22;23794;48.234;8.344;2022-10-18T06:40:23;14.30;99.90
37972;DHT22;23794;48.234;8.344;2022-10-18T06:42:50;14.30;99.90
37972;DHT22;23794;48.234;8.344;2022-10-18T06:45:36;14.30;99.90
37972;DHT22;23794;48.234;8.344;2022-10-18T06:48:02;14.50;99.90
37972;DHT22;23794;48.234;8.344;2022-10-18T06:50:29;14.60;99.90
37972;DHT22;23794;48.234;8.344;2022-10-18T06:52:56;14.70;99.90
37972;DHT22;23794;48.234;8.344;2022-10-18T06:55:23;14.80;99.90
37972;DHT22;23794;48.234;8.344;2022-10-18T06:57:50;14.80;99.90
37972;DHT22;23794;48.234;8.344;2022-10-18T07:00:18;14.90;99.90
37972;DHT22;23794;48.234;8.344;2022-10-18T07:02:45;15.10;99.90
37972;DHT22;23794;48.234;8.344;2022-10-18T07:05:11;15.20;99.90
37972;DHT22;23794;48.234;8.344;2022-10-18T07:07:38;15.30;99.90
37972;DHT22;23794;48.234;8.344;2022-10-18T07:10:06;15.40;99.90
37972;DHT22;23794;48.234;8.344;2022-10-18T07:12:36;15.60;99.90
37972;DHT22;23794;48.234;8.344;2022-10-18T07:15:03;15.70;99.90
37972;DHT22;23794;48.234;8.344;2022-10-18T07:17:35;15.70;99.90
37972;DHT22;23794;48.234;8.344;2022-10-18T07:20:02;15.70;99.90
37972;DHT22;23794;48.234;8.344;2022-10-18T07:22:29;15.80;99.90
37972;DHT22;23794;48.234;8.344;2022-10-18T07:24:56;15.80;99.90
37972;DHT22;23794;48.234;8.344;2022-10-18T07:27:23;16.00;99.90
37972;DHT22;23794;48.234;8.344;2022-10-18T07:29:50;16.10;99.90
37972;DHT22;23794;48.234;8.344;2022-10-18T07:32:16;16.20;99.90
37972;DHT22;23794;48.234;8.344;2022-10-18T07:34:43;16.20;99.90
37972;DHT22;23794;48.234;8.344;2022-10-18T07:37:10;16.30;99.90
37972;DHT22;23794;48.234;8.344;2022-10-18T07:39:37;16.30;99.90
37972;DHT22;23794;48.234;8.344;2022-10-18T07:42:04;16.40;99.90
37972;DHT22;23794;48.234;8.344;2022-10-18T07:44:31;16.50;99.90
37972;DHT22;23794;48.234;8.344;2022-10-18T07:46:57;16.60;99.90
37972;DHT22;23794;48.234;8.344;2022-10-18T07:49:24;16.70;99.90
37972;DHT22;23794;48.234;8.344;2022-10-18T07:51:51;16.80;99.90
37972;DHT22;23794;48.234;8.344;2022-10-18T07:54:17;16.90;99.90
37972;DHT22;23794;48.234;8.344;2022-10-18T07:56:44;17.00;99.90
37972;DHT22;23794;48.234;8.344;2022-10-18T07:59:11;17.10;99.90
37972;DHT22;23794;48.234;8.344;2022-10-18T08:01:38;17.30;99.90
37972;DHT22;23794;48.234;8.344;2022-10-18T08:04:05;17.40;99.90
37972;DHT22;23794;48.234;8.344;2022-10-18T08:06:35;17.60;99.90
37972;DHT22;23794;48.234;8.344;2022-10-18T08:09:02;17.80;99.90
37972;DHT22;23794;48.234;8.344;2022-10-18T08:11:29;18.10;99.90
37972;DHT22;23794;48.234;8.344;2022-10-18T08:13:56;18.30;99.90
37972;DHT22;23794;48.234;8.344;2022-10-18T08:16:25;18.50;99.90
37972;DHT22;23794;48.234;8.344;2022-10-18T08:18:52;18.50;99.90
37972;DHT22;23794;48.234;8.344;2022-10-18T08:21:20;18.40;99.90
37972;DHT22;23794;48.234;8.344;2022-10-18T08:23:47;18.50;99.90
37972;DHT22;23794;48.234;8.344;2022-10-18T08:26:17;18.40;99.90
37972;DHT22;23794;48.234;8.344;2022-10-18T08:28:44;18.40;99.90
37972;DHT22;23794;48.234;8.344;2022-10-18T08:31:24;18.30;99.90
37972;DHT22;23794;48.234;8.344;2022-10-18T08:33:52;18.20;99.90
37972;DHT22;23794;48.234;8.344;2022-10-18T08:36:19;18.20;99.90
37972;DHT22;23794;48.234;8.344;2022-10-18T08:38:46;18.20;99.90
37972;DHT22;23794;48.234;8.344;2022-10-18T08:46:34;18.00;99.90
37972;DHT22;23794;48.234;8.344;2022-10-18T08:49:03;17.90;99.90
37972;DHT22;23794;48.234;8.344;2022-10-18T08:51:42;17.90;99.90
37972;DHT22;23794;48.234;8.344;2022-10-18T08:54:11;17.90;99.90
37972;DHT22;23794;48.234;8.344;2022-10-18T08:56:42;17.80;99.90
37972;DHT22;23794;48.234;8.344;2022-10-18T08:59:11;17.80;99.90
37972;DHT22;23794;48.234;8.344;2022-10-18T09:01:55;17.80;99.90
37972;DHT22;23794;48.234;8.344;2022-10-18T09:04:56;17.70;99.90
37972;DHT22;23794;48.234;8.344;2022-10-18T09:07:48;17.80;99.90
37972;DHT22;23794;48.234;8.344;2022-10-18T09:13:35;18.00;99.90
37972;DHT22;23794;48.234;8.344;2022-10-18T09:16:09;18.40;99.90
37972;DHT22;23794;48.234;8.344;2022-10-18T09:24:16;18.80;99.90
37972;DHT22;23794;48.234;8.344;2022-10-18T09:26:46;18.70;99.90
37972;DHT22;23794;48.234;8.344;2022-10-18T09:29:45;18.70;99.90
37972;DHT22;23794;48.234;8.344;2022-10-18T09:35:29;18.60;99.90
37972;DHT22;23794;48.234;8.344;2022-10-18T09:38:04;18.50;99.90
37972;DHT22;23794;48.234;8.344;2022-10-18T09:40:42;18.40;99.90
37972;DHT22;23794;48.234;8.344;2022-10-18T09:43:19;18.40;99.90
37972;DHT22;23794;48.234;8.344;2022-10-18T09:45:49;18.50;99.90
37972;DHT22;23794;48.234;8.344;2022-10-18T09:51:08;18.80;99.90
37972;DHT22;23794;48.234;8.344;2022-10-18T09:56:53;19.40;99.90
37972;DHT22;23794;48.234;8.344;2022-10-18T09:58:52;19.60;99.90
37972;DHT22;23794;48.234;8.344;2022-10-18T10:01:28;19.70;99.90
37972;DHT22;23794;48.234;8.344;2022-10-18T10:03:56;19.90;99.90
37972;DHT22;23794;48.234;8.344;2022-10-18T10:06:31;20.10;99.90
37972;DHT22;23794;48.234;8.344;2022-10-18T10:09:05;20.20;99.90
37972;DHT22;23794;48.234;8.344;2022-10-18T10:11:38;20.30;99.90
37972;DHT22;23794;48.234;8.344;2022-10-18T10:14:19;20.40;99.90
37972;DHT22;23794;48.234;8.344;2022-10-18T10:17:04;20.60;99.90
37972;DHT22;23794;48.234;8.344;2022-10-18T10:32:15;20.80;99.90
37972;DHT22;23794;48.234;8.344;2022-10-18T10:34:42;20.70;99.90
37972;DHT22;23794;48.234;8.344;2022-10-18T10:37:37;20.60;99.90
37972;DHT22;23794;48.234;8.344;2022-10-18T10:40:18;20.80;99.90
37972;DHT22;23794;48.234;8.344;2022-10-18T10:46:09;20.80;99.90
37972;DHT22;23794;48.234;8.344;2022-10-18T10:48:50;20.90;99.90
37972;DHT22;23794;48.234;8.344;2022-10-18T10:51:32;21.10;99.90
37972;DHT22;23794;48.234;8.344;2022-10-18T10:54:14;21.20;99.90
37972;DHT22;23794;48.234;8.344;2022-10-18T10:56:58;21.40;99.90
37972;DHT22;23794;48.234;8.344;2022-10-18T10:59:40;21.50;99.90
37972;DHT22;23794;48.234;8.344;2022-10-18T11:04:46;21.60;99.90
37972;DHT22;23794;48.234;8.344;2022-10-18T11:07:42;21.70;99.90
37972;DHT22;23794;48.234;8.344;2022-10-18T11:18:09;21.60;99.90
37972;DHT22;23794;48.234;8.344;2022-10-18T11:23:26;21.80;99.90
37972;DHT22;23794;48.234;8.344;2022-10-18T11:43:25;22.10;99.90
37972;DHT22;23794;48.234;8.344;2022-10-18T12:00:42;22.80;99.90
37972;DHT22;23794;48.234;8.344;2022-10-18T12:05:38;22.60;99.90
37972;DHT22;23794;48.234;8.344;2022-10-18T12:10:56;22.80;99.90
37972;DHT22;23794;48.234;8.344;2022-10-18T12:13:43;22.90;99.90
37972;DHT22;23794;48.234;8.344;2022-10-18T12:16:11;23.20;99.90
37972;DHT22;23794;48.234;8.344;2022-10-18T12:21:21;23.70;99.90
37972;DHT22;23794;48.234;8.344;2022-10-18T12:24:10;23.60;99.90
37972;DHT22;23794;48.234;8.344;2022-10-18T12:26:38;23.40;99.90
37972;DHT22;23794;48.234;8.344;2022-10-18T12:31:55;23.20;99.90
37972;DHT22;23794;48.234;8.344;2022-10-18T12:34:42;23.30;99.90
37972;DHT22;23794;48.234;8.344;2022-10-18T12:42:48;23.20;99.90
37972;DHT22;23794;48.234;8.344;2022-10-18T12:45:30;23.30;99.90
37972;DHT22;23794;48.234;8.344;2022-10-18T12:48:07;23.60;99.90
37972;DHT22;23794;48.234;8.344;2022-10-18T12:50:57;23.90;99.90
37972;DHT22;23794;48.234;8.344;2022-10-18T12:53:26;24.10;99.90
37972;DHT22;23794;48.234;8.344;2022-10-18T12:55:54;24.20;99.90
37972;DHT22;23794;48.234;8.344;2022-10-18T12:58:41;24.00;99.90
37972;DHT22;23794;48.234;8.344;2022-10-18T13:01:08;23.50;99.90
37972;DHT22;23794;48.234;8.344;2022-10-18T13:03:49;23.70;99.90
37972;DHT22;23794;48.234;8.344;2022-10-18T13:06:16;24.00;99.90
37972;DHT22;23794;48.234;8.344;2022-10-18T13:08:43;24.10;99.90
37972;DHT22;23794;48.234;8.344;2022-10-18T13:16:46;24.20;99.90
37972;DHT22;23794;48.234;8.344;2022-10-18T13:19:17;24.40;99.90
37972;DHT22;23794;48.234;8.344;2022-10-18T13:25:20;24.00;99.90
37972;DHT22;23794;48.234;8.344;2022-10-18T13:27:58;23.70;99.90
37972;DHT22;23794;48.234;8.344;2022-10-18T13:30:32;23.80;99.90
37972;DHT22;23794;48.234;8.344;2022-10-18T13:33:34;23.60;99.90
37972;DHT22;23794;48.234;8.344;2022-10-18T13:36:21;23.50;99.90
37972;DHT22;23794;48.234;8.344;2022-10-18T13:44:26;22.90;99.90
37972;DHT22;23794;48.234;8.344;2022-10-18T13:52:27;22.80;99.90
37972;DHT22;23794;48.234;8.344;2022-10-18T13:58:06;23.10;99.90
37972;DHT22;23794;48.234;8.344;2022-10-18T14:00:47;23.10;99.90
37972;DHT22;23794;48.234;8.344;2022-10-18T14:03:34;22.90;99.90
37972;DHT22;23794;48.234;8.344;2022-10-18T14:06:27;22.50;99.90
37972;DHT22;23794;48.234;8.344;2022-10-18T14:09:06;22.10;99.90
37972;DHT22;23794;48.234;8.344;2022-10-18T14:12:06;21.70;99.90
37972;DHT22;23794;48.234;8.344;2022-10-18T14:14:43;21.20;99.90
37972;DHT22;23794;48.234;8.344;2022-10-18T14:17:27;21.00;99.90
37972;DHT22;23794;48.234;8.344;2022-10-18T14:20:37;21.00;99.90
37972;DHT22;23794;48.234;8.344;2022-10-18T14:23:20;20.80;99.90
37972;DHT22;23794;48.234;8.344;2022-10-18T14:25:47;20.80;99.90
37972;DHT22;23794;48.234;8.344;2022-10-18T14:28:19;20.70;99.90
37972;DHT22;23794;48.234;8.344;2022-10-18T14:31:04;20.80;99.90
37972;DHT22;23794;48.234;8.344;2022-10-18T14:33:42;20.60;99.90
37972;DHT22;23794;48.234;8.344;2022-10-18T14:41:19;20.10;99.90
37972;DHT22;23794;48.234;8.344;2022-10-18T14:43:46;20.00;99.90
37972;DHT22;23794;48.234;8.344;2022-10-18T14:48:59;20.00;99.90
37972;DHT22;23794;48.234;8.344;2022-10-18T14:51:29;19.80;99.90
37972;DHT22;23794;48.234;8.344;2022-10-18T14:53:57;19.70;99.90
37972;DHT22;23794;48.234;8.344;2022-10-18T14:56:35;19.60;99.90
37972;DHT22;23794;48.234;8.344;2022-10-18T14:59:10;19.50;99.90
37972;DHT22;23794;48.234;8.344;2022-10-18T15:01:38;19.40;99.90
37972;DHT22;23794;48.234;8.344;2022-10-18T15:04:09;19.20;99.90
37972;DHT22;23794;48.234;8.344;2022-10-18T15:06:41;19.10;99.90
37972;DHT22;23794;48.234;8.344;2022-10-18T15:09:09;18.90;99.90
37972;DHT22;23794;48.234;8.344;2022-10-18T15:11:38;18.90;99.90
37972;DHT22;23794;48.234;8.344;2022-10-18T15:14:13;18.80;99.90
37972;DHT22;23794;48.234;8.344;2022-10-18T15:16:42;18.70;99.90
37972;DHT22;23794;48.234;8.344;2022-10-18T15:22:03;18.70;99.90
37972;DHT22;23794;48.234;8.344;2022-10-18T15:27:35;18.60;99.90
37972;DHT22;23794;48.234;8.344;2022-10-18T15:30:07;18.50;99.90
37972;DHT22;23794;48.234;8.344;2022-10-18T15:33:07;18.50;99.90
37972;DHT22;23794;48.234;8.344;2022-10-18T15:35:37;18.50;99.90
37972;DHT22;23794;48.234;8.344;2022-10-18T15:38:21;18.30;99.90
37972;DHT22;23794;48.234;8.344;2022-10-18T15:40:50;18.20;99.90
37972;DHT22;23794;48.234;8.344;2022-10-18T15:45:52;18.20;99.90
37972;DHT22;23794;48.234;8.344;2022-10-18T15:48:29;18.10;99.90
37972;DHT22;23794;48.234;8.344;2022-10-18T15:50:59;18.00;99.90
37972;DHT22;23794;48.234;8.344;2022-10-18T15:53:40;18.00;99.90
37972;DHT22;23794;48.234;8.344;2022-10-18T15:56:32;17.80;99.90
37972;DHT22;23794;48.234;8.344;2022-10-18T15:59:05;17.80;99.90
37972;DHT22;23794;48.234;8.344;2022-10-18T16:01:42;17.70;99.90
37972;DHT22;23794;48.234;8.344;2022-10-18T16:04:25;17.50;99.90
37972;DHT22;23794;48.234;8.344;2022-10-18T16:06:54;17.40;99.90
37972;DHT22;23794;48.234;8.344;2022-10-18T16:09:25;17.30;99.90
37972;DHT22;23794;48.234;8.344;2022-10-18T16:11:53;17.10;99.90
37972;DHT22;23794;48.234;8.344;2022-10-18T16:14:23;17.10;99.90
37972;DHT22;23794;48.234;8.344;2022-10-18T16:16:56;17.20;99.90
37972;DHT22;23794;48.234;8.344;2022-10-18T16:19:26;17.20;99.90
37972;DHT22;23794;48.234;8.344;2022-10-18T16:21:53;17.10;99.90
37972;DHT22;23794;48.234;8.344;2022-10-18T16:24:21;17.10;99.90
37972;DHT22;23794;48.234;8.344;2022-10-18T16:26:48;17.00;99.90
37972;DHT22;23794;48.234;8.344;2022-10-18T16:29:22;16.90;99.90
37972;DHT22;23794;48.234;8.344;2022-10-18T16:31:54;16.80;99.90
37972;DHT22;23794;48.234;8.344;2022-10-18T16:34:24;16.70;99.90
37972;DHT22;23794;48.234;8.344;2022-10-18T16:36:54;16.50;99.90
37972;DHT22;23794;48.234;8.344;2022-10-18T16:39:21;16.30;99.90
37972;DHT22;23794;48.234;8.344;2022-10-18T16:41:48;16.30;99.90
37972;DHT22;23794;48.234;8.344;2022-10-18T16:44:17;16.40;99.90
37972;DHT22;23794;48.234;8.344;2022-10-18T16:46:45;16.40;99.90
37972;DHT22;23794;48.234;8.344;2022-10-18T16:49:18;16.40;99.90
37972;DHT22;23794;48.234;8.344;2022-10-18T16:51:52;16.30;99.90
37972;DHT22;23794;48.234;8.344;2022-10-18T16:54:19;16.20;99.90
37972;DHT22;23794;48.234;8.344;2022-10-18T16:56:45;16.20;99.90
37972;DHT22;23794;48.234;8.344;2022-10-18T16:59:22;16.20;99.90
37972;DHT22;23794;48.234;8.344;2022-10-18T17:01:49;16.10;99.90
37972;DHT22;23794;48.234;8.344;2022-10-18T17:04:16;16.10;99.90
37972;DHT22;23794;48.234;8.344;2022-10-18T17:06:43;16.00;99.90
37972;DHT22;23794;48.234;8.344;2022-10-18T17:09:13;15.80;99.90
37972;DHT22;23794;48.234;8.344;2022-10-18T17:11:40;15.60;99.90
37972;DHT22;23794;48.234;8.344;2022-10-18T17:14:07;15.60;99.90
37972;DHT22;23794;48.234;8.344;2022-10-18T17:16:35;15.60;99.90
37972;DHT22;23794;48.234;8.344;2022-10-18T17:19:05;15.60;99.90
37972;DHT22;23794;48.234;8.344;2022-10-18T17:21:32;15.60;99.90
37972;DHT22;23794;48.234;8.344;2022-10-18T17:23:59;15.60;99.90
37972;DHT22;23794;48.234;8.344;2022-10-18T17:26:29;15.60;99.90
37972;DHT22;23794;48.234;8.344;2022-10-18T17:29:01;15.50;99.90
37972;DHT22;23794;48.234;8.344;2022-10-18T17:31:30;15.50;99.90
37972;DHT22;23794;48.234;8.344;2022-10-18T17:33:57;15.40;99.90
37972;DHT22;23794;48.234;8.344;2022-10-18T17:36:27;15.20;99.90
37972;DHT22;23794;48.234;8.344;2022-10-18T17:38:54;15.20;99.90
37972;DHT22;23794;48.234;8.344;2022-10-18T17:41:21;15.10;99.90
37972;DHT22;23794;48.234;8.344;2022-10-18T17:43:48;15.10;99.90
37972;DHT22;23794;48.234;8.344;2022-10-18T17:46:15;15.20;99.90
37972;DHT22;23794;48.234;8.344;2022-10-18T17:48:43;15.10;99.90
37972;DHT22;23794;48.234;8.344;2022-10-18T17:51:12;15.10;99.90
37972;DHT22;23794;48.234;8.344;2022-10-18T17:53:39;15.10;99.90
37972;DHT22;23794;48.234;8.344;2022-10-18T17:56:07;15.00;99.90
37972;DHT22;23794;48.234;8.344;2022-10-18T17:58:34;14.90;99.90
37972;DHT22;23794;48.234;8.344;2022-10-18T18:01:12;14.70;99.90
37972;DHT22;23794;48.234;8.344;2022-10-18T18:03:39;14.60;99.90
37972;DHT22;23794;48.234;8.344;2022-10-18T18:06:17;14.70;99.90
37972;DHT22;23794;48.234;8.344;2022-10-18T18:08:45;14.70;99.90
37972;DHT22;23794;48.234;8.344;2022-10-18T18:11:13;14.60;99.90
37972;DHT22;23794;48.234;8.344;2022-10-18T18:13:40;14.60;99.90
37972;DHT22;23794;48.234;8.344;2022-10-18T18:16:19;14.60;99.90
37972;DHT22;23794;48.234;8.344;2022-10-18T18:18:49;14.60;99.90
37972;DHT22;23794;48.234;8.344;2022-10-18T18:21:17;14.50;99.90
37972;DHT22;23794;48.234;8.344;2022-10-18T18:23:44;14.50;99.90
37972;DHT22;23794;48.234;8.344;2022-10-18T18:26:12;14.50;99.90
37972;DHT22;23794;48.234;8.344;2022-10-18T18:28:40;14.50;99.90
37972;DHT22;23794;48.234;8.344;2022-10-18T18:31:09;14.40;99.90